Flight Track Log - Related Links

Times and Time Zones

All times are in EDT time to prevent confusion due to time zone crossing. See the CHQ6082 flight status page for this flight to view local times or setup timezone preferences in your user account.

Time Position Orientation Groundspeed Altitude Reporting Facility
EDT Latitude Longitude Course Direction KTS MPH feet Rate Location/Type
Fri 01:47:18 PM 42.1744 -85.4517 114° Southeast 239 275 5,500  Level Chicago Center
Fri 01:48:20 PM 42.1600 -85.3583 102° East 249 287 8,500 2,592 Climbing Chicago Center
Fri 01:49:23 PM 42.1436 -85.2611 103° East 263 303 10,900 1,200 Climbing Chicago Center
Fri 01:50:25 PM 42.1194 -85.1119 102° East 338 389 11,000 48 Climbing Chicago Center
Fri 01:51:00 PM 42.0621 -84.8103 105° East  Level FlightAware Approximate
Fri 01:51:27 PM 42.1003 -84.9894 102° East 342 394 11,000  Level Chicago Center
Fri 01:52:29 PM 42.0825 -84.8769 102° East 319 367 11,000  Level Chicago Center
Fri 01:53:31 PM 42.0633 -84.7683 103° East 305 351 11,000  Level Chicago Center
Fri 01:54:33 PM 42.0133 -84.6825 128° Southeast 296 341 11,000  Level Chicago Center
Fri 01:55:35 PM 41.9275 -84.6639 171° South 292 336 11,000  Level Chicago Center
Fri 01:56:37 PM 41.8483 -84.6411 168° South 291 335 11,000  Level Chicago Center
Fri 01:57:45 PM 41.7994 -84.5500 126° Southeast 258 297 11,000  Level Cleveland Center
Fri 01:58:44 PM 41.8097 -84.4364 83° East 251 289 11,000  Level Cleveland Center
Fri 01:59:45 PM 41.7692 -84.3392 119° Southeast 270 311 11,000  Level Cleveland Center
Fri 02:00:36 PM 41.7178 -84.2500 128° Southeast 307 353 11,000  Level Cleveland Center
Fri 02:01:44 PM 41.7403 -84.1342 75° East 261 300 11,000  Level Cleveland Center
Fri 02:02:45 PM 41.8072 -84.0600 40° Northeast 265 305 11,000  Level Cleveland Center
Fri 02:03:45 PM 41.8661 -83.9739 47° Northeast 285 328 11,000  Level Cleveland Center
Fri 02:04:45 PM 41.9228 -83.8847 49° Northeast 299 344 11,000  Level Cleveland Center
Fri 02:05:45 PM 41.9797 -83.7928 50° Northeast 306 352 11,000  Level Cleveland Center
Fri 02:06:45 PM 42.0383 -83.7033 49° Northeast 311 358 11,000  Level Cleveland Center
Fri 02:07:45 PM 42.0928 -83.6164 50° Northeast 311 358 11,000  Level Cleveland Center
Fri 02:08:45 PM 42.1611 -83.5608 31° Northeast 289 333 11,000  Level Cleveland Center
Fri 02:09:45 PM 42.2186 -83.5158 30° Northeast 251 289 11,000 -397 Level Cleveland Center
Fri 02:11:01 PM 42.2928 -83.4606 29° Northeast 236 272 10,100 -913 Descending Cleveland Center
Fri 02:12:03 PM 42.3542 -83.4239 24° Northeast 235 270 8,900 -1,171 Descending Cleveland Center
Fri 02:13:04 PM 42.4133 -83.3956 19° North 219 252 7,700 -1,219 Descending Cleveland Center
Fri 02:14:11 PM 42.4764 -83.3675 18° North 205 236 6,300 -1,377 Descending Cleveland Center
Fri 02:15:06 PM 42.5028 -83.3178 54° Northeast 202 232 4,900 -1,190 Descending Cleveland Center
Fri 02:16:07 PM 42.4833 -83.2522 112° Southeast 178 205 4,000 -439 Descending Cleveland Center
Fri 02:17:09 PM 42.4381 -83.2364 166° South 182 209 4,000  Level Cleveland Center
Fri 02:18:10 PM 42.3875 -83.2483 190° South 171 197 4,000  Level Cleveland Center

Login

Don't have an account? Register now (free) for customized features, flight alerts, and more!